Bloomington, IN

11:44 AM EST on December 21, 2014 (GMT -0500)
KINBLOOM23 | Change Station
CLOSE
Current Station
Personal Weather Station
Location: Bloomington, IN
Elevation: 800 ft
Nearby Weather Stations

Elev 800 ft 39.15 °N, 86.51 °W | Updated 51 seconds ago

Clear
Clear
33.1 °F
Feels Like 33 °F
N
2.0
Wind Variable Wind from SSE

Today
High -- | Low -- °F
--% Chance of Precip.
Yesterday
High -- | Low -- °F
Precip. -- in
8:01 AM 5:26 PM
Waning Crescent, 0% visible
Pressure 30.30 in
Visibility 6.0 miles
Clouds Clear
Windchill 33 °F
Dew Point 30 °F
Humidity 87%
Rainfall 0.00 in
Snow Depth Not available.
UV 2 out of 12
Pollen .10 out of 12
Air Quality Not available.
Flu Activity Not available.
METAR KBMG 211553Z 12006KT 6SM BR CLR M01/M02 A3027 RMK AO2 SLP260 T10061022

More Conditions Fewer Conditions

Pressure 30.30 in
Visibility 6.0 miles
Clouds Clear
Windchill 33 °F
Dew Point 30 °F
Humidity 87%
Rainfall 0.00 in
Snow Depth Not available.
UV 2 out of 12
Pollen .10 out of 12
Air Quality Not available.
Flu Activity Not available.
METAR KBMG 211553Z 12006KT 6SM BR CLR M01/M02 A3027 RMK AO2 SLP260 T10061022

More Conditions Fewer Conditions

10-Day Weather Forecast

Almanac

Astronomy

Dec. 21, 2014 Rise Set
Actual Time
Civil Twilight
Nautical Twilight
Astronomical Twilight
Moon
Length of Visible Light
Length of Day
Tomorrow will be .
, % of the Moon is Illuminated

Today's Extremes

State Highs State Lows

Community

WunderPhotos

Upload Photos

1,779,433 photos uploaded!

WunderBlogs® & News

Nearby

Air Quality

  Air Quality AQ Index Pollutant
Not available.

Snow Depth

Station Depth Elevation

Earthquake Activity

City Distance Mag. Time & Date
Minimum magnitude displayed is 2.5.

Coastal Water Temperatures

Place Temperature

Nearby Weather Stations